createdAt,value
2022-10-19T00:04:10.544Z,0.00
2022-10-19T00:09:29.647Z,0.00
2022-10-19T00:14:21.924Z,0.00
2022-10-19T00:19:21.843Z,0.00
2022-10-19T00:24:21.750Z,0.00
2022-10-19T00:29:21.712Z,0.00
2022-10-19T00:34:21.644Z,0.00
2022-10-19T00:39:21.549Z,0.00
2022-10-19T00:44:21.500Z,0.00
2022-10-19T00:49:21.432Z,0.00
2022-10-19T00:54:21.369Z,0.00
2022-10-19T00:59:21.266Z,0.00
2022-10-19T01:04:21.232Z,0.00
2022-10-19T01:09:21.165Z,0.00
2022-10-19T01:14:21.066Z,0.00
2022-10-19T01:19:21.027Z,0.00
2022-10-19T01:24:20.956Z,0.00
2022-10-19T01:29:20.858Z,0.00
2022-10-19T01:34:20.867Z,0.00
2022-10-19T01:39:20.760Z,0.00
2022-10-19T01:44:20.693Z,0.00
2022-10-19T01:49:20.613Z,0.00
2022-10-19T01:54:20.560Z,0.00
2022-10-19T01:59:20.484Z,0.00
2022-10-19T02:04:20.420Z,0.00
2022-10-19T02:09:20.369Z,0.00
2022-10-19T02:14:20.283Z,0.00
2022-10-19T02:19:20.256Z,0.00
2022-10-19T02:24:20.156Z,0.00
2022-10-19T02:29:20.087Z,0.00
2022-10-19T02:34:20.058Z,0.00
2022-10-19T02:39:19.940Z,0.00
2022-10-19T02:44:19.884Z,0.00
2022-10-19T02:49:19.828Z,0.00
2022-10-19T02:54:19.740Z,0.00
2022-10-19T02:59:19.660Z,0.00
2022-10-19T03:04:19.611Z,0.00
2022-10-19T03:09:19.543Z,0.00
2022-10-19T03:14:19.503Z,0.00
2022-10-19T03:19:19.412Z,0.00
2022-10-19T03:24:19.342Z,0.00
2022-10-19T03:29:19.303Z,0.00
2022-10-19T03:34:19.209Z,0.00
2022-10-19T03:39:19.144Z,0.00
2022-10-19T03:44:19.070Z,0.00
2022-10-19T03:49:19.000Z,0.00
2022-10-19T03:54:20.652Z,0.00
2022-10-19T03:59:18.864Z,0.00
2022-10-19T04:04:18.784Z,0.00
2022-10-19T04:09:18.771Z,0.00
2022-10-19T04:14:31.627Z,0.00
2022-10-19T04:19:34.709Z,0.00
2022-10-19T04:24:27.112Z,0.00
2022-10-19T04:29:29.967Z,0.00
2022-10-19T04:34:26.971Z,0.00
2022-10-19T04:39:26.909Z,0.00
2022-10-19T04:44:26.850Z,0.00
2022-10-19T04:49:26.785Z,0.00
2022-10-19T04:54:26.722Z,0.00
2022-10-19T04:59:26.645Z,0.00
2022-10-19T05:04:26.585Z,0.00
2022-10-19T05:09:26.527Z,0.00
2022-10-19T05:19:26.483Z,0.00
2022-10-19T05:24:26.309Z,0.00
2022-10-19T05:29:26.243Z,0.00
2022-10-19T05:34:26.172Z,4.00
2022-10-19T05:39:26.131Z,4.00
2022-10-19T05:44:26.114Z,20.00
2022-10-19T05:49:25.980Z,44.00
2022-10-19T05:54:27.796Z,84.00
2022-10-19T05:59:25.835Z,136.00
2022-10-19T06:04:25.752Z,204.00
2022-10-19T06:09:25.737Z,260.00
2022-10-19T06:14:25.623Z,328.00
2022-10-19T06:19:25.569Z,420.00
2022-10-19T06:24:25.491Z,516.00
2022-10-19T06:29:25.436Z,704.00
2022-10-19T06:34:25.406Z,868.00
2022-10-19T06:39:25.301Z,880.00
2022-10-19T06:44:25.239Z,1200.00
2022-10-19T06:49:25.173Z,1388.00
2022-10-19T06:54:25.088Z,1516.00
2022-10-19T06:59:25.087Z,1732.00
2022-10-19T07:04:24.971Z,1924.00
2022-10-19T07:09:24.914Z,2336.00
2022-10-19T07:14:24.830Z,4608.00
2022-10-19T07:19:24.729Z,6440.00
2022-10-19T07:24:24.699Z,7052.00
2022-10-19T07:29:24.628Z,5924.00
2022-10-19T07:34:26.809Z,5684.00
2022-10-19T07:39:24.478Z,3888.00
2022-10-19T07:44:24.409Z,6024.00
2022-10-19T07:49:24.340Z,5940.00
2022-10-19T07:54:24.299Z,4760.00
2022-10-19T07:59:24.288Z,5396.00
2022-10-19T08:09:51.497Z,11612.00
2022-10-19T08:14:25.036Z,12128.00
2022-10-19T08:19:23.937Z,12116.00
2022-10-19T08:24:23.867Z,11856.00
2022-10-19T08:29:25.561Z,12084.00
2022-10-19T08:34:23.727Z,11512.00
2022-10-19T08:39:23.749Z,12152.00
2022-10-19T08:44:23.605Z,12544.00
2022-10-19T08:49:23.529Z,13216.00
2022-10-19T08:54:23.754Z,13632.00
2022-10-19T08:59:23.505Z,17280.00
2022-10-19T09:04:23.414Z,23904.00
2022-10-19T09:09:23.274Z,30176.00
2022-10-19T09:14:23.225Z,34272.00
2022-10-19T09:19:23.208Z,40096.00
2022-10-19T09:24:23.037Z,45184.00
2022-10-19T09:29:23.000Z,40672.00
2022-10-19T09:34:22.975Z,43456.00
2022-10-19T09:39:25.672Z,39680.00
2022-10-19T09:44:23.796Z,43040.00
2022-10-19T09:49:22.722Z,47904.00
2022-10-19T09:54:22.831Z,46400.00
2022-10-19T09:59:22.639Z,42048.00
2022-10-19T10:04:22.548Z,45376.00
2022-10-19T10:09:22.465Z,39072.00
2022-10-19T10:14:22.396Z,37120.00
2022-10-19T10:19:25.328Z,35168.00
2022-10-19T10:24:22.254Z,34784.00
2022-10-19T10:29:22.203Z,30688.00
2022-10-19T10:34:28.723Z,30720.00
2022-10-19T10:39:23.064Z,30528.00
2022-10-19T10:44:22.014Z,33216.00
2022-10-19T10:49:21.955Z,34560.00
2022-10-19T10:54:21.871Z,27936.00
2022-10-19T10:59:21.811Z,30048.00
2022-10-19T11:04:21.764Z,24224.00
2022-10-19T11:09:21.639Z,9844.00
2022-10-19T11:14:21.602Z,16576.00
2022-10-19T11:19:21.535Z,12644.00
2022-10-19T11:24:21.465Z,27232.00
2022-10-19T11:29:21.396Z,27968.00
2022-10-19T11:34:23.724Z,24736.00
2022-10-19T11:39:21.279Z,18592.00
2022-10-19T11:44:21.188Z,15776.00
2022-10-19T11:49:21.134Z,13664.00
2022-10-19T11:54:21.066Z,14720.00
2022-10-19T11:59:20.954Z,11808.00
2022-10-19T12:04:20.935Z,13216.00
2022-10-19T12:09:20.900Z,11444.00
2022-10-19T12:14:20.805Z,10920.00
2022-10-19T12:19:20.714Z,8976.00
2022-10-19T12:24:20.665Z,7168.00
2022-10-19T12:29:20.596Z,6100.00
2022-10-19T12:34:20.526Z,4820.00
2022-10-19T12:39:20.429Z,4816.00
2022-10-19T12:44:20.445Z,4436.00
2022-10-19T12:49:20.316Z,4684.00
2022-10-19T12:54:20.235Z,5148.00
2022-10-19T12:59:20.192Z,4656.00
2022-10-19T13:04:20.198Z,4156.00
2022-10-19T13:09:20.037Z,4384.00
2022-10-19T13:14:19.982Z,4436.00
2022-10-19T13:19:19.908Z,4116.00
2022-10-19T13:24:19.832Z,3392.00
2022-10-19T13:29:19.852Z,3000.00
2022-10-19T13:34:19.737Z,3124.00
2022-10-19T13:39:19.625Z,3180.00
2022-10-19T13:44:19.580Z,2900.00
2022-10-19T13:49:19.501Z,2688.00
2022-10-19T13:54:19.443Z,2644.00
2022-10-19T13:59:19.447Z,2736.00
2022-10-19T14:04:19.304Z,2528.00
2022-10-19T14:09:19.229Z,2376.00
2022-10-19T14:14:19.174Z,2440.00
2022-10-19T14:19:19.088Z,2348.00
2022-10-19T14:24:19.056Z,2220.00
2022-10-19T14:29:18.957Z,2196.00
2022-10-19T14:34:18.891Z,2172.00
2022-10-19T14:39:18.828Z,2104.00
2022-10-19T14:44:18.773Z,2040.00
2022-10-19T14:49:18.703Z,1916.00
2022-10-19T14:54:18.612Z,1808.00
2022-10-19T14:59:18.559Z,1728.00
2022-10-19T15:04:18.503Z,1688.00
2022-10-19T15:09:30.262Z,1704.00
2022-10-19T15:14:19.359Z,1672.00
2022-10-19T15:19:18.267Z,1676.00
2022-10-19T15:24:18.262Z,1648.00
2022-10-19T15:29:18.172Z,1620.00
2022-10-19T15:34:18.074Z,1560.00
2022-10-19T15:39:32.369Z,1516.00
2022-10-19T15:44:18.970Z,1440.00
2022-10-19T15:49:17.859Z,1188.00
2022-10-19T15:54:17.843Z,908.00
2022-10-19T15:59:17.782Z,644.00
2022-10-19T16:04:17.678Z,428.00
2022-10-19T16:09:17.620Z,284.00
2022-10-19T16:19:17.468Z,124.00
2022-10-19T16:24:17.428Z,80.00
2022-10-19T16:29:17.343Z,52.00
2022-10-19T16:34:17.258Z,32.00
2022-10-19T16:39:17.292Z,12.00
2022-10-19T16:44:17.132Z,8.00
2022-10-19T16:49:17.039Z,4.00
2022-10-19T16:54:17.015Z,0.00
2022-10-19T16:59:16.949Z,0.00
2022-10-19T17:04:16.865Z,0.00
2022-10-19T17:09:40.832Z,0.00
2022-10-19T17:14:17.776Z,0.00
2022-10-19T17:19:16.646Z,0.00
2022-10-19T17:24:21.114Z,0.00
2022-10-19T17:29:16.529Z,0.00
2022-10-19T17:34:16.470Z,0.00
2022-10-19T17:39:16.408Z,0.00
2022-10-19T17:44:16.357Z,0.00
2022-10-19T17:49:16.241Z,0.00
2022-10-19T17:54:16.207Z,0.00
2022-10-19T17:59:16.141Z,0.00
2022-10-19T18:04:16.116Z,0.00
2022-10-19T18:09:15.981Z,0.00
2022-10-19T18:14:15.930Z,0.00
2022-10-19T18:19:15.819Z,0.00
2022-10-19T18:24:15.804Z,0.00
2022-10-19T18:29:15.748Z,0.00
2022-10-19T18:34:15.625Z,0.00
2022-10-19T18:39:15.568Z,0.00
2022-10-19T18:44:15.540Z,0.00
2022-10-19T18:49:15.420Z,0.00
2022-10-19T18:54:15.389Z,0.00
2022-10-19T18:59:15.404Z,0.00
2022-10-19T19:04:15.234Z,0.00
2022-10-19T19:09:15.195Z,0.00
2022-10-19T19:14:15.111Z,0.00
2022-10-19T19:19:15.134Z,0.00
2022-10-19T19:24:14.979Z,0.00
2022-10-19T19:29:14.907Z,0.00
2022-10-19T19:34:14.846Z,0.00
2022-10-19T19:39:14.792Z,0.00
2022-10-19T19:44:14.686Z,0.00
2022-10-19T19:49:14.641Z,0.00
2022-10-19T19:54:14.579Z,0.00
2022-10-19T19:59:14.501Z,0.00
2022-10-19T20:04:14.467Z,0.00
2022-10-19T20:09:14.369Z,0.00
2022-10-19T20:14:14.321Z,0.00
2022-10-19T20:19:14.247Z,0.00
2022-10-19T20:24:14.177Z,0.00
2022-10-19T20:29:14.086Z,0.00
2022-10-19T20:34:14.251Z,0.00
2022-10-19T20:39:13.963Z,0.00
2022-10-19T20:44:13.990Z,0.00
2022-10-19T20:49:13.841Z,0.00
2022-10-19T20:54:13.770Z,0.00
2022-10-19T20:59:13.734Z,0.00
2022-10-19T21:04:13.652Z,0.00
2022-10-19T21:09:13.615Z,0.00
2022-10-19T21:14:13.518Z,0.00
2022-10-19T21:19:13.427Z,0.00
2022-10-19T21:24:13.360Z,0.00
2022-10-19T21:29:13.374Z,0.00
2022-10-19T21:34:13.228Z,0.00
2022-10-19T21:39:13.174Z,0.00
2022-10-19T21:44:13.137Z,0.00
2022-10-19T21:49:13.005Z,0.00
2022-10-19T21:54:13.022Z,0.00
2022-10-19T21:59:12.877Z,0.00
2022-10-19T22:04:12.815Z,0.00
2022-10-19T22:09:12.799Z,0.00
2022-10-19T22:14:12.715Z,0.00
2022-10-19T22:19:12.835Z,0.00
2022-10-19T22:24:13.666Z,0.00
2022-10-19T22:29:12.594Z,0.00
2022-10-19T22:34:12.423Z,0.00
2022-10-19T22:39:12.414Z,0.00
2022-10-19T22:44:12.318Z,0.00
2022-10-19T22:49:12.202Z,0.00
2022-10-19T22:54:32.378Z,0.00
2022-10-19T22:59:24.778Z,0.00
2022-10-19T23:04:24.694Z,0.00
2022-10-19T23:09:24.668Z,0.00
2022-10-19T23:14:24.562Z,0.00
2022-10-19T23:19:24.530Z,0.00
2022-10-19T23:24:24.515Z,0.00
2022-10-19T23:29:24.442Z,0.00
2022-10-19T23:34:24.488Z,0.00
2022-10-19T23:39:24.257Z,0.00
2022-10-19T23:44:24.188Z,0.00
2022-10-19T23:49:24.119Z,0.00
2022-10-19T23:54:24.056Z,0.00
2022-10-19T23:59:23.990Z,0.00
